RYR4RH EPGD-ESSA
Flight info
| Callsign | RYR4RH |
|---|---|
| Flight time | N/A |
| Altitude | 36000 |
| Route | VAPOS N133 PENOR DCT ARMOD/N0446F370 Z228 NILUG |
| Aircraft | B738/M-SDE2E3FGHIRWXY/LB1 |
Departure
| Time | 2026-04-27 13:29 |
|---|---|
| Airport | Gdańsk Lech Wałęsa Airport (EPGD) |
Arrival
| Time | N/A |
|---|---|
| Airport | Stockholm-Arlanda Airport (ESSA) |
| Time | Latitude | Longitude | Altitude | Speed | Heading |
|---|---|---|---|---|---|
| 2026-04-27 13:20 | 54.38023 | 18.46790 | 452 ft | 0 kts | 23° |
| 2026-04-27 13:22 | 54.38016 | 18.46784 | 452 ft | 2 kts | 23° |
| 2026-04-27 13:22 | 54.38002 | 18.46774 | 451 ft | 2 kts | 23° |
| 2026-04-27 13:22 | 54.37988 | 18.46764 | 451 ft | 2 kts | 23° |
| 2026-04-27 13:22 | 54.37975 | 18.46752 | 450 ft | 2 kts | 44° |
| 2026-04-27 13:23 | 54.37966 | 18.46731 | 449 ft | 2 kts | 64° |
| 2026-04-27 13:23 | 54.37962 | 18.46707 | 449 ft | 2 kts | 85° |
| 2026-04-27 13:23 | 54.37963 | 18.46682 | 449 ft | 2 kts | 106° |
| 2026-04-27 13:23 | 54.37966 | 18.46671 | 449 ft | 1 kts | 116° |
| 2026-04-27 13:24 | 54.37967 | 18.46665 | 449 ft | 0 kts | 114° |
| 2026-04-27 13:24 | 54.37967 | 18.46666 | 449 ft | 0 kts | 114° |
| 2026-04-27 13:25 | 54.37966 | 18.46669 | 449 ft | 2 kts | 114° |
| 2026-04-27 13:25 | 54.37949 | 18.46739 | 449 ft | 10 kts | 112° |
| 2026-04-27 13:25 | 54.37912 | 18.46892 | 450 ft | 17 kts | 116° |
| 2026-04-27 13:26 | 54.37818 | 18.47096 | 450 ft | 25 kts | 113° |
| 2026-04-27 13:26 | 54.37739 | 18.47421 | 452 ft | 33 kts | 110° |
| 2026-04-27 13:26 | 54.37643 | 18.47804 | 461 ft | 34 kts | 113° |
| 2026-04-27 13:26 | 54.37553 | 18.48162 | 469 ft | 31 kts | 117° |
| 2026-04-27 13:27 | 54.37476 | 18.48479 | 478 ft | 26 kts | 112° |
| 2026-04-27 13:27 | 54.37410 | 18.48751 | 484 ft | 22 kts | 113° |
| 2026-04-27 13:27 | 54.37353 | 18.48978 | 489 ft | 19 kts | 113° |
| 2026-04-27 13:27 | 54.37302 | 18.49185 | 489 ft | 18 kts | 115° |
| 2026-04-27 13:28 | 54.37205 | 18.49246 | 489 ft | 16 kts | 208° |
| 2026-04-27 13:28 | 54.37180 | 18.48952 | 485 ft | 43 kts | 293° |
| 2026-04-27 13:28 | 54.37379 | 18.48156 | 469 ft | 106 kts | 294° |
| 2026-04-27 13:28 | 54.37750 | 18.46663 | 454 ft | 163 kts | 298° |
| 2026-04-27 13:29 | 54.38212 | 18.44751 | 900 ft | 178 kts | 295° |
| 2026-04-27 13:29 | 54.38643 | 18.42898 | 1673 ft | 169 kts | 296° |
| 2026-04-27 13:29 | 54.39127 | 18.40909 | 1833 ft | 190 kts | 297° |
| 2026-04-27 13:29 | 54.39676 | 18.38759 | 2167 ft | 203 kts | 296° |
| 2026-04-27 13:30 | 54.40258 | 18.36443 | 2429 ft | 221 kts | 296° |
| 2026-04-27 13:30 | 54.40864 | 18.33977 | 2814 ft | 233 kts | 295° |
| 2026-04-27 13:30 | 54.41513 | 18.31334 | 3208 ft | 244 kts | 295° |
| 2026-04-27 13:30 | 54.42189 | 18.28670 | 3796 ft | 248 kts | 298° |
| 2026-04-27 13:31 | 54.43132 | 18.26252 | 4499 ft | 246 kts | 317° |
| 2026-04-27 13:31 | 54.44516 | 18.24541 | 5190 ft | 246 kts | 330° |
| 2026-04-27 13:31 | 54.46005 | 18.23105 | 5891 ft | 249 kts | 330° |
| 2026-04-27 13:31 | 54.47498 | 18.21635 | 6620 ft | 250 kts | 329° |
| 2026-04-27 13:32 | 54.48977 | 18.20111 | 7365 ft | 250 kts | 328° |
| 2026-04-27 13:32 | 54.50471 | 18.18535 | 8055 ft | 254 kts | 328° |
| 2026-04-27 13:32 | 54.51952 | 18.16959 | 8799 ft | 254 kts | 328° |
| 2026-04-27 13:32 | 54.53447 | 18.15366 | 9566 ft | 255 kts | 328° |
| 2026-04-27 13:33 | 54.54955 | 18.13763 | 10296 ft | 257 kts | 328° |
| 2026-04-27 13:33 | 54.56474 | 18.12147 | 10831 ft | 266 kts | 328° |
| 2026-04-27 13:33 | 54.58088 | 18.10429 | 11255 ft | 280 kts | 328° |
| 2026-04-27 13:33 | 54.59766 | 18.08570 | 11755 ft | 291 kts | 326° |
| 2026-04-27 13:34 | 54.61395 | 18.06554 | 12474 ft | 293 kts | 324° |
| 2026-04-27 13:34 | 54.63022 | 18.04417 | 13190 ft | 296 kts | 323° |
| 2026-04-27 13:34 | 54.64654 | 18.02244 | 13922 ft | 298 kts | 323° |
| 2026-04-27 13:34 | 54.66280 | 18.00088 | 14689 ft | 300 kts | 323° |
| 2026-04-27 13:35 | 54.67939 | 17.97903 | 15389 ft | 304 kts | 323° |
| 2026-04-27 13:35 | 54.69624 | 17.95692 | 16098 ft | 307 kts | 323° |
| 2026-04-27 13:35 | 54.71332 | 17.93453 | 16812 ft | 310 kts | 323° |
| 2026-04-27 13:35 | 54.73041 | 17.91214 | 17495 ft | 312 kts | 323° |
| 2026-04-27 13:36 | 54.74775 | 17.88936 | 18124 ft | 315 kts | 323° |
| 2026-04-27 13:36 | 54.76525 | 17.86634 | 18780 ft | 318 kts | 323° |
| 2026-04-27 13:36 | 54.78292 | 17.84351 | 19409 ft | 322 kts | 325° |
| 2026-04-27 13:36 | 54.80176 | 17.82238 | 20051 ft | 324 kts | 330° |
| 2026-04-27 13:37 | 54.82169 | 17.80453 | 20593 ft | 329 kts | 334° |
| 2026-04-27 13:37 | 54.84254 | 17.78797 | 21195 ft | 331 kts | 335° |
| 2026-04-27 13:37 | 54.86355 | 17.77190 | 21766 ft | 334 kts | 335° |
| 2026-04-27 13:37 | 54.88489 | 17.75559 | 22271 ft | 338 kts | 335° |
| 2026-04-27 13:38 | 54.90626 | 17.73910 | 22829 ft | 340 kts | 334° |
| 2026-04-27 13:38 | 54.92778 | 17.72233 | 23327 ft | 343 kts | 334° |
| 2026-04-27 13:38 | 54.94962 | 17.70517 | 23819 ft | 346 kts | 334° |
| 2026-04-27 13:38 | 54.97170 | 17.68775 | 24308 ft | 349 kts | 334° |
| 2026-04-27 13:39 | 54.99396 | 17.67039 | 24773 ft | 352 kts | 335° |
| 2026-04-27 13:39 | 55.01661 | 17.65308 | 25233 ft | 356 kts | 335° |
| 2026-04-27 13:39 | 55.03950 | 17.63572 | 25708 ft | 358 kts | 335° |
| 2026-04-27 13:39 | 55.06210 | 17.61857 | 26162 ft | 361 kts | 335° |
| 2026-04-27 13:40 | 55.08533 | 17.60089 | 26619 ft | 363 kts | 335° |
| 2026-04-27 13:40 | 55.10861 | 17.58312 | 27063 ft | 366 kts | 335° |
| 2026-04-27 13:40 | 55.13194 | 17.56527 | 27521 ft | 368 kts | 334° |
| 2026-04-27 13:40 | 55.15526 | 17.54736 | 27951 ft | 370 kts | 335° |
| 2026-04-27 13:41 | 55.17887 | 17.52920 | 28365 ft | 373 kts | 334° |
| 2026-04-27 13:41 | 55.20256 | 17.51097 | 28761 ft | 376 kts | 335° |
| 2026-04-27 13:41 | 55.22659 | 17.49232 | 29179 ft | 378 kts | 334° |
| 2026-04-27 13:41 | 55.25049 | 17.47347 | 29571 ft | 380 kts | 334° |
| 2026-04-27 13:42 | 55.27482 | 17.45406 | 29934 ft | 383 kts | 334° |
| 2026-04-27 13:42 | 55.29887 | 17.43483 | 30329 ft | 385 kts | 334° |
| 2026-04-27 13:42 | 55.32340 | 17.41521 | 30685 ft | 388 kts | 334° |
| 2026-04-27 13:42 | 55.34803 | 17.39552 | 30998 ft | 391 kts | 334° |
| 2026-04-27 13:43 | 55.37275 | 17.37575 | 31371 ft | 392 kts | 334° |
| 2026-04-27 13:43 | 55.39749 | 17.35593 | 31736 ft | 393 kts | 334° |
| 2026-04-27 13:43 | 55.42242 | 17.33595 | 32269 ft | 390 kts | 333° |
| 2026-04-27 13:43 | 55.44697 | 17.31624 | 32708 ft | 389 kts | 333° |
| 2026-04-27 13:44 | 55.47160 | 17.29644 | 33082 ft | 390 kts | 333° |
| 2026-04-27 13:44 | 55.49622 | 17.27663 | 33527 ft | 388 kts | 333° |
| 2026-04-27 13:44 | 55.52056 | 17.25703 | 33908 ft | 387 kts | 333° |
| 2026-04-27 13:44 | 55.54515 | 17.23723 | 34275 ft | 387 kts | 333° |
| 2026-04-27 13:45 | 55.56934 | 17.21771 | 34631 ft | 387 kts | 333° |
| 2026-04-27 13:45 | 55.59377 | 17.19805 | 34932 ft | 387 kts | 334° |
| 2026-04-27 13:45 | 55.61874 | 17.18018 | 35195 ft | 388 kts | 338° |
| 2026-04-27 13:45 | 55.64467 | 17.16700 | 35439 ft | 391 kts | 345° |
| 2026-04-27 13:46 | 55.67130 | 17.15969 | 35692 ft | 393 kts | 351° |
| 2026-04-27 13:46 | 55.69879 | 17.15826 | 35935 ft | 396 kts | 358° |
| 2026-04-27 13:46 | 55.72638 | 17.16123 | 36188 ft | 397 kts | 0° |
| 2026-04-27 13:46 | 55.75363 | 17.16561 | 36242 ft | 400 kts | 1° |
| 2026-04-27 13:47 | 55.80873 | 17.17437 | 36253 ft | 396 kts | 0° |
| 2026-04-27 13:47 | 55.86335 | 17.18156 | 36255 ft | 396 kts | 359° |
| 2026-04-27 13:48 | 55.91832 | 17.18760 | 36257 ft | 396 kts | 359° |
| 2026-04-27 13:48 | 55.97320 | 17.19312 | 36255 ft | 396 kts | 359° |
| 2026-04-27 13:49 | 56.02781 | 17.19851 | 36255 ft | 395 kts | 359° |
| 2026-04-27 13:49 | 56.08251 | 17.20381 | 36254 ft | 394 kts | 359° |
| 2026-04-27 13:50 | 56.13706 | 17.20904 | 36260 ft | 395 kts | 359° |
| 2026-04-27 13:50 | 56.19132 | 17.21430 | 36266 ft | 394 kts | 359° |
| 2026-04-27 13:51 | 56.24608 | 17.21961 | 36267 ft | 394 kts | 359° |
| 2026-04-27 13:51 | 56.30041 | 17.22492 | 36268 ft | 394 kts | 359° |
| 2026-04-27 13:52 | 56.35484 | 17.23028 | 36270 ft | 394 kts | 359° |
| 2026-04-27 13:52 | 56.40931 | 17.23562 | 36264 ft | 392 kts | 359° |
| 2026-04-27 13:53 | 56.49064 | 17.24373 | 36263 ft | 392 kts | 359° |
| 2026-04-27 13:54 | 56.54476 | 17.24911 | 36261 ft | 392 kts | 359° |
| 2026-04-27 13:54 | 56.59891 | 17.25443 | 36262 ft | 392 kts | 359° |
| 2026-04-27 13:55 | 56.65343 | 17.25980 | 36259 ft | 391 kts | 359° |
| 2026-04-27 13:55 | 56.70752 | 17.26518 | 36262 ft | 391 kts | 359° |
| 2026-04-27 13:56 | 56.76143 | 17.27058 | 36259 ft | 391 kts | 359° |
| 2026-04-27 13:56 | 56.78831 | 17.27334 | 36061 ft | 387 kts | 359° |
| 2026-04-27 13:56 | 56.81537 | 17.27611 | 36181 ft | 387 kts | 359° |
| 2026-04-27 13:57 | 56.86948 | 17.28149 | 36253 ft | 394 kts | 359° |
| 2026-04-27 13:57 | 56.92358 | 17.28693 | 36251 ft | 391 kts | 359° |
| 2026-04-27 13:58 | 56.97770 | 17.29243 | 36249 ft | 390 kts | 359° |
| 2026-04-27 13:58 | 57.03181 | 17.29791 | 36251 ft | 392 kts | 359° |
| 2026-04-27 13:59 | 57.08584 | 17.30338 | 36245 ft | 390 kts | 359° |
| 2026-04-27 13:59 | 57.13972 | 17.30881 | 36249 ft | 391 kts | 359° |
| 2026-04-27 14:00 | 57.19388 | 17.31438 | 36246 ft | 390 kts | 359° |
| 2026-04-27 14:00 | 57.24777 | 17.31996 | 36247 ft | 389 kts | 359° |
| 2026-04-27 14:01 | 57.30129 | 17.32544 | 36243 ft | 389 kts | 359° |
| 2026-04-27 14:01 | 57.35519 | 17.33109 | 36236 ft | 388 kts | 359° |
| 2026-04-27 14:02 | 57.40826 | 17.33650 | 36239 ft | 388 kts | 358° |
| 2026-04-27 14:02 | 57.46202 | 17.34206 | 36240 ft | 387 kts | 359° |
| 2026-04-27 14:03 | 57.51532 | 17.35136 | 36235 ft | 391 kts | 4° |
| 2026-04-27 14:03 | 57.56869 | 17.37093 | 36231 ft | 392 kts | 7° |
| 2026-04-27 14:04 | 57.62172 | 17.39288 | 36235 ft | 391 kts | 7° |
| 2026-04-27 14:04 | 57.67463 | 17.41459 | 36237 ft | 392 kts | 7° |
| 2026-04-27 14:05 | 57.72728 | 17.43592 | 36116 ft | 383 kts | 6° |
| 2026-04-27 14:05 | 57.75275 | 17.44624 | 36232 ft | 377 kts | 6° |
| 2026-04-27 14:05 | 57.77831 | 17.45656 | 35945 ft | 372 kts | 6° |
| 2026-04-27 14:05 | 57.80300 | 17.46653 | 35709 ft | 366 kts | 6° |
| 2026-04-27 14:06 | 57.82753 | 17.47644 | 35469 ft | 359 kts | 6° |
| 2026-04-27 14:06 | 57.85187 | 17.48620 | 35094 ft | 358 kts | 5° |
| 2026-04-27 14:06 | 57.87640 | 17.49597 | 34397 ft | 364 kts | 5° |
| 2026-04-27 14:06 | 57.90118 | 17.50582 | 33608 ft | 370 kts | 5° |
| 2026-04-27 14:07 | 57.92629 | 17.51587 | 32819 ft | 375 kts | 5° |
| 2026-04-27 14:07 | 57.95174 | 17.52612 | 32024 ft | 380 kts | 5° |
| 2026-04-27 14:07 | 57.97760 | 17.53656 | 31222 ft | 383 kts | 5° |
| 2026-04-27 14:07 | 58.00375 | 17.54716 | 30390 ft | 386 kts | 5° |
| 2026-04-27 14:08 | 58.02968 | 17.55769 | 29557 ft | 389 kts | 5° |
| 2026-04-27 14:08 | 58.05598 | 17.56837 | 28716 ft | 391 kts | 6° |
| 2026-04-27 14:08 | 58.08237 | 17.57910 | 27877 ft | 392 kts | 6° |
| 2026-04-27 14:08 | 58.10879 | 17.58988 | 27044 ft | 393 kts | 6° |
| 2026-04-27 14:09 | 58.13536 | 17.60074 | 26206 ft | 393 kts | 6° |
| 2026-04-27 14:09 | 58.16222 | 17.61174 | 25370 ft | 394 kts | 6° |
| 2026-04-27 14:09 | 58.18882 | 17.62263 | 24549 ft | 393 kts | 6° |
| 2026-04-27 14:09 | 58.21512 | 17.63343 | 23734 ft | 393 kts | 6° |
| 2026-04-27 14:10 | 58.24160 | 17.64435 | 22911 ft | 392 kts | 6° |
| 2026-04-27 14:10 | 58.26814 | 17.65533 | 22083 ft | 390 kts | 7° |
| 2026-04-27 14:10 | 58.29438 | 17.66621 | 21262 ft | 388 kts | 7° |
| 2026-04-27 14:10 | 58.32049 | 17.67703 | 20444 ft | 385 kts | 7° |
| 2026-04-27 14:11 | 58.34658 | 17.68785 | 19615 ft | 383 kts | 7° |
| 2026-04-27 14:11 | 58.37232 | 17.69855 | 18802 ft | 380 kts | 8° |
| 2026-04-27 14:11 | 58.39767 | 17.70911 | 18115 ft | 374 kts | 8° |
| 2026-04-27 14:11 | 58.42269 | 17.71953 | 17617 ft | 365 kts | 8° |
| 2026-04-27 14:12 | 58.44711 | 17.72971 | 17186 ft | 354 kts | 8° |
| 2026-04-27 14:12 | 58.47047 | 17.73947 | 16856 ft | 342 kts | 8° |
| 2026-04-27 14:12 | 58.49325 | 17.74897 | 16606 ft | 328 kts | 8° |
| 2026-04-27 14:12 | 58.51453 | 17.75784 | 16363 ft | 316 kts | 8° |
| 2026-04-27 14:13 | 58.53552 | 17.76656 | 16112 ft | 304 kts | 7° |
| 2026-04-27 14:13 | 58.55574 | 17.77498 | 15858 ft | 293 kts | 7° |
| 2026-04-27 14:13 | 58.57531 | 17.78312 | 15615 ft | 283 kts | 7° |
| 2026-04-27 14:13 | 58.59417 | 17.79102 | 15357 ft | 274 kts | 7° |
| 2026-04-27 14:14 | 58.59917 | 17.79312 | 15287 ft | 272 kts | 7° |